sensor_id;sensor_type;location;lat;lon;timestamp;P1;P2;P0
56175;PMS5003;63065;51.082;17.016;2022-09-02T00:01:14;7;7;
56175;PMS5003;63065;51.082;17.016;2022-09-02T00:03:37;8;8;
56175;PMS5003;63065;51.082;17.016;2022-09-02T00:06:04;7;7;
56175;PMS5003;63065;51.082;17.016;2022-09-02T00:08:29;7;7;
56175;PMS5003;63065;51.082;17.016;2022-09-02T00:10:55;11;10;
56175;PMS5003;63065;51.082;17.016;2022-09-02T00:13:21;11;8;
56175;PMS5003;63065;51.082;17.016;2022-09-02T00:15:47;7;7;
56175;PMS5003;63065;51.082;17.016;2022-09-02T00:18:12;7;7;
56175;PMS5003;63065;51.082;17.016;2022-09-02T00:20:38;5;5;
56175;PMS5003;63065;51.082;17.016;2022-09-02T00:23:03;8;8;
56175;PMS5003;63065;51.082;17.016;2022-09-02T00:25:29;9;9;
56175;PMS5003;63065;51.082;17.016;2022-09-02T00:27:55;5;5;
56175;PMS5003;63065;51.082;17.016;2022-09-02T00:30:20;6;5;
56175;PMS5003;63065;51.082;17.016;2022-09-02T00:32:46;11;10;
56175;PMS5003;63065;51.082;17.016;2022-09-02T00:35:11;9;9;
56175;PMS5003;63065;51.082;17.016;2022-09-02T00:37:37;10;9;
56175;PMS5003;63065;51.082;17.016;2022-09-02T00:40:04;5;5;
56175;PMS5003;63065;51.082;17.016;2022-09-02T00:42:28;7;7;
56175;PMS5003;63065;51.082;17.016;2022-09-02T00:44:54;6;6;
56175;PMS5003;63065;51.082;17.016;2022-09-02T00:47:20;8;8;
56175;PMS5003;63065;51.082;17.016;2022-09-02T00:49:47;7;7;
56175;PMS5003;63065;51.082;17.016;2022-09-02T00:52:12;8;8;
56175;PMS5003;63065;51.082;17.016;2022-09-02T00:54:38;11;8;
56175;PMS5003;63065;51.082;17.016;2022-09-02T00:57:05;11;8;
56175;PMS5003;63065;51.082;17.016;2022-09-02T00:59:37;7;7;
56175;PMS5003;63065;51.082;17.016;2022-09-02T01:01:54;10;10;
56175;PMS5003;63065;51.082;17.016;2022-09-02T01:04:20;9;8;
56175;PMS5003;63065;51.082;17.016;2022-09-02T01:06:46;8;8;
56175;PMS5003;63065;51.082;17.016;2022-09-02T01:09:13;7;7;
56175;PMS5003;63065;51.082;17.016;2022-09-02T01:11:39;8;8;
56175;PMS5003;63065;51.082;17.016;2022-09-02T01:14:02;13;10;
56175;PMS5003;63065;51.082;17.016;2022-09-02T01:16:30;12;9;
56175;PMS5003;63065;51.082;17.016;2022-09-02T01:18:54;9;8;
56175;PMS5003;63065;51.082;17.016;2022-09-02T01:21:20;11;10;
56175;PMS5003;63065;51.082;17.016;2022-09-02T01:23:45;12;11;
56175;PMS5003;63065;51.082;17.016;2022-09-02T01:26:11;7;7;
56175;PMS5003;63065;51.082;17.016;2022-09-02T01:28:36;11;11;
56175;PMS5003;63065;51.082;17.016;2022-09-02T01:31:02;8;8;
56175;PMS5003;63065;51.082;17.016;2022-09-02T01:33:28;11;11;
56175;PMS5003;63065;51.082;17.016;2022-09-02T01:35:54;13;11;
56175;PMS5003;63065;51.082;17.016;2022-09-02T01:38:21;9;9;
56175;PMS5003;63065;51.082;17.016;2022-09-02T01:40:44;8;8;
56175;PMS5003;63065;51.082;17.016;2022-09-02T01:43:13;9;9;
56175;PMS5003;63065;51.082;17.016;2022-09-02T01:45:36;7;7;
56175;PMS5003;63065;51.082;17.016;2022-09-02T01:48:02;8;8;
56175;PMS5003;63065;51.082;17.016;2022-09-02T01:50:27;7;7;
56175;PMS5003;63065;51.082;17.016;2022-09-02T01:52:53;8;8;
56175;PMS5003;63065;51.082;17.016;2022-09-02T01:55:18;8;8;
56175;PMS5003;63065;51.082;17.016;2022-09-02T01:57:44;8;8;
56175;PMS5003;63065;51.082;17.016;2022-09-02T02:00:10;8;7;
56175;PMS5003;63065;51.082;17.016;2022-09-02T02:02:35;10;10;
56175;PMS5003;63065;51.082;17.016;2022-09-02T02:05:01;9;6;
56175;PMS5003;63065;51.082;17.016;2022-09-02T02:07:27;10;9;
56175;PMS5003;63065;51.082;17.016;2022-09-02T02:09:52;15;14;
56175;PMS5003;63065;51.082;17.016;2022-09-02T02:12:17;11;11;
56175;PMS5003;63065;51.082;17.016;2022-09-02T02:14:43;9;8;
56175;PMS5003;63065;51.082;17.016;2022-09-02T02:17:08;11;8;
56175;PMS5003;63065;51.082;17.016;2022-09-02T02:19:34;10;10;
56175;PMS5003;63065;51.082;17.016;2022-09-02T02:22:00;11;9;
56175;PMS5003;63065;51.082;17.016;2022-09-02T02:24:25;8;8;
56175;PMS5003;63065;51.082;17.016;2022-09-02T02:26:51;7;7;
56175;PMS5003;63065;51.082;17.016;2022-09-02T02:29:17;7;7;
56175;PMS5003;63065;51.082;17.016;2022-09-02T02:31:43;11;9;
56175;PMS5003;63065;51.082;17.016;2022-09-02T02:34:08;13;13;
56175;PMS5003;63065;51.082;17.016;2022-09-02T02:36:34;12;12;
56175;PMS5003;63065;51.082;17.016;2022-09-02T02:39:00;10;9;
56175;PMS5003;63065;51.082;17.016;2022-09-02T02:41:26;9;8;
56175;PMS5003;63065;51.082;17.016;2022-09-02T02:43:51;11;10;
56175;PMS5003;63065;51.082;17.016;2022-09-02T02:46:17;8;8;
56175;PMS5003;63065;51.082;17.016;2022-09-02T02:48:42;8;8;
56175;PMS5003;63065;51.082;17.016;2022-09-02T02:51:08;8;8;
56175;PMS5003;63065;51.082;17.016;2022-09-02T02:53:34;8;8;
56175;PMS5003;63065;51.082;17.016;2022-09-02T02:55:59;11;10;
56175;PMS5003;63065;51.082;17.016;2022-09-02T02:58:25;10;10;
56175;PMS5003;63065;51.082;17.016;2022-09-02T03:00:51;6;6;
56175;PMS5003;63065;51.082;17.016;2022-09-02T03:03:17;8;8;
56175;PMS5003;63065;51.082;17.016;2022-09-02T03:05:42;8;7;
56175;PMS5003;63065;51.082;17.016;2022-09-02T03:08:08;11;11;
56175;PMS5003;63065;51.082;17.016;2022-09-02T03:10:33;8;8;
56175;PMS5003;63065;51.082;17.016;2022-09-02T03:12:59;10;9;
56175;PMS5003;63065;51.082;17.016;2022-09-02T03:15:25;10;9;
56175;PMS5003;63065;51.082;17.016;2022-09-02T03:17:51;12;10;
56175;PMS5003;63065;51.082;17.016;2022-09-02T03:20:17;9;9;
56175;PMS5003;63065;51.082;17.016;2022-09-02T03:22:42;9;7;
56175;PMS5003;63065;51.082;17.016;2022-09-02T03:25:09;8;8;
56175;PMS5003;63065;51.082;17.016;2022-09-02T03:27:33;6;6;
56175;PMS5003;63065;51.082;17.016;2022-09-02T03:29:58;10;8;
56175;PMS5003;63065;51.082;17.016;2022-09-02T03:32:24;7;7;
56175;PMS5003;63065;51.082;17.016;2022-09-02T03:34:50;8;8;
56175;PMS5003;63065;51.082;17.016;2022-09-02T03:37:16;8;8;
56175;PMS5003;63065;51.082;17.016;2022-09-02T03:39:41;7;7;
56175;PMS5003;63065;51.082;17.016;2022-09-02T03:42:07;14;11;
56175;PMS5003;63065;51.082;17.016;2022-09-02T03:44:32;10;10;
56175;PMS5003;63065;51.082;17.016;2022-09-02T03:46:57;7;7;
56175;PMS5003;63065;51.082;17.016;2022-09-02T03:49:23;9;8;
56175;PMS5003;63065;51.082;17.016;2022-09-02T03:51:49;7;7;
56175;PMS5003;63065;51.082;17.016;2022-09-02T03:54:15;7;7;
56175;PMS5003;63065;51.082;17.016;2022-09-02T03:56:40;6;6;
56175;PMS5003;63065;51.082;17.016;2022-09-02T03:59:06;8;8;
56175;PMS5003;63065;51.082;17.016;2022-09-02T04:01:32;8;8;
56175;PMS5003;63065;51.082;17.016;2022-09-02T04:03:58;8;6;
56175;PMS5003;63065;51.082;17.016;2022-09-02T04:06:24;7;7;
56175;PMS5003;63065;51.082;17.016;2022-09-02T04:08:50;9;9;
56175;PMS5003;63065;51.082;17.016;2022-09-02T04:11:17;10;9;
56175;PMS5003;63065;51.082;17.016;2022-09-02T04:13:41;7;7;
56175;PMS5003;63065;51.082;17.016;2022-09-02T04:16:07;8;6;
56175;PMS5003;63065;51.082;17.016;2022-09-02T04:18:32;7;7;
56175;PMS5003;63065;51.082;17.016;2022-09-02T04:20:58;7;7;
56175;PMS5003;63065;51.082;17.016;2022-09-02T04:23:24;11;8;
56175;PMS5003;63065;51.082;17.016;2022-09-02T04:25:50;8;6;
56175;PMS5003;63065;51.082;17.016;2022-09-02T04:28:15;12;10;
56175;PMS5003;63065;51.082;17.016;2022-09-02T04:30:40;8;7;
56175;PMS5003;63065;51.082;17.016;2022-09-02T04:33:06;7;6;
56175;PMS5003;63065;51.082;17.016;2022-09-02T04:35:32;9;7;
56175;PMS5003;63065;51.082;17.016;2022-09-02T04:37:57;6;6;
56175;PMS5003;63065;51.082;17.016;2022-09-02T04:40:23;8;7;
56175;PMS5003;63065;51.082;17.016;2022-09-02T04:42:49;6;6;
56175;PMS5003;63065;51.082;17.016;2022-09-02T04:45:15;8;8;
56175;PMS5003;63065;51.082;17.016;2022-09-02T04:47:40;10;10;
56175;PMS5003;63065;51.082;17.016;2022-09-02T04:50:06;8;8;
56175;PMS5003;63065;51.082;17.016;2022-09-02T04:52:32;10;9;
56175;PMS5003;63065;51.082;17.016;2022-09-02T04:54:57;13;9;
56175;PMS5003;63065;51.082;17.016;2022-09-02T04:57:23;11;11;
56175;PMS5003;63065;51.082;17.016;2022-09-02T04:59:49;11;10;
56175;PMS5003;63065;51.082;17.016;2022-09-02T05:02:14;10;10;
56175;PMS5003;63065;51.082;17.016;2022-09-02T05:04:40;11;11;
56175;PMS5003;63065;51.082;17.016;2022-09-02T05:07:05;13;13;
56175;PMS5003;63065;51.082;17.016;2022-09-02T05:09:31;10;10;
56175;PMS5003;63065;51.082;17.016;2022-09-02T05:11:57;15;12;
56175;PMS5003;63065;51.082;17.016;2022-09-02T05:14:22;10;10;
56175;PMS5003;63065;51.082;17.016;2022-09-02T05:16:47;12;12;
56175;PMS5003;63065;51.082;17.016;2022-09-02T05:19:13;12;11;
56175;PMS5003;63065;51.082;17.016;2022-09-02T05:21:39;16;15;
56175;PMS5003;63065;51.082;17.016;2022-09-02T05:24:05;14;13;
56175;PMS5003;63065;51.082;17.016;2022-09-02T05:26:31;12;12;
56175;PMS5003;63065;51.082;17.016;2022-09-02T05:28:56;11;11;
56175;PMS5003;63065;51.082;17.016;2022-09-02T05:31:22;12;12;
56175;PMS5003;63065;51.082;17.016;2022-09-02T05:33:48;13;13;
56175;PMS5003;63065;51.082;17.016;2022-09-02T05:36:14;11;9;
56175;PMS5003;63065;51.082;17.016;2022-09-02T05:38:39;9;9;
56175;PMS5003;63065;51.082;17.016;2022-09-02T05:41:05;11;10;
56175;PMS5003;63065;51.082;17.016;2022-09-02T05:43:30;11;10;
56175;PMS5003;63065;51.082;17.016;2022-09-02T05:45:56;10;10;
56175;PMS5003;63065;51.082;17.016;2022-09-02T05:48:22;13;13;
56175;PMS5003;63065;51.082;17.016;2022-09-02T05:50:47;8;6;
56175;PMS5003;63065;51.082;17.016;2022-09-02T05:53:12;10;10;
56175;PMS5003;63065;51.082;17.016;2022-09-02T05:55:38;11;11;
56175;PMS5003;63065;51.082;17.016;2022-09-02T05:58:04;6;6;
56175;PMS5003;63065;51.082;17.016;2022-09-02T06:00:30;10;10;
56175;PMS5003;63065;51.082;17.016;2022-09-02T06:02:55;10;10;
56175;PMS5003;63065;51.082;17.016;2022-09-02T06:05:21;8;8;
56175;PMS5003;63065;51.082;17.016;2022-09-02T06:07:46;10;8;
56175;PMS5003;63065;51.082;17.016;2022-09-02T06:10:12;7;6;
56175;PMS5003;63065;51.082;17.016;2022-09-02T06:12:38;8;8;
56175;PMS5003;63065;51.082;17.016;2022-09-02T06:15:04;6;6;
56175;PMS5003;63065;51.082;17.016;2022-09-02T06:17:29;7;7;
56175;PMS5003;63065;51.082;17.016;2022-09-02T06:19:55;6;5;
56175;PMS5003;63065;51.082;17.016;2022-09-02T06:22:21;7;7;
56175;PMS5003;63065;51.082;17.016;2022-09-02T06:24:46;6;6;
56175;PMS5003;63065;51.082;17.016;2022-09-02T06:27:12;6;6;
56175;PMS5003;63065;51.082;17.016;2022-09-02T06:29:38;7;5;
56175;PMS5003;63065;51.082;17.016;2022-09-02T06:32:04;10;7;
56175;PMS5003;63065;51.082;17.016;2022-09-02T06:34:29;10;8;
56175;PMS5003;63065;51.082;17.016;2022-09-02T06:36:55;8;8;
56175;PMS5003;63065;51.082;17.016;2022-09-02T06:39:21;9;9;
56175;PMS5003;63065;51.082;17.016;2022-09-02T06:41:47;8;8;
56175;PMS5003;63065;51.082;17.016;2022-09-02T06:44:12;6;6;
56175;PMS5003;63065;51.082;17.016;2022-09-02T06:46:39;8;8;
56175;PMS5003;63065;51.082;17.016;2022-09-02T06:49:04;7;7;
56175;PMS5003;63065;51.082;17.016;2022-09-02T06:51:31;7;7;
56175;PMS5003;63065;51.082;17.016;2022-09-02T06:53:55;10;9;
56175;PMS5003;63065;51.082;17.016;2022-09-02T06:56:21;6;6;
56175;PMS5003;63065;51.082;17.016;2022-09-02T06:58:46;8;7;
56175;PMS5003;63065;51.082;17.016;2022-09-02T07:01:16;7;6;
56175;PMS5003;63065;51.082;17.016;2022-09-02T07:03:38;7;7;
56175;PMS5003;63065;51.082;17.016;2022-09-02T07:06:04;7;7;
56175;PMS5003;63065;51.082;17.016;2022-09-02T07:08:30;6;6;
56175;PMS5003;63065;51.082;17.016;2022-09-02T07:10:55;6;5;
56175;PMS5003;63065;51.082;17.016;2022-09-02T07:13:21;6;6;
56175;PMS5003;63065;51.082;17.016;2022-09-02T07:15:47;6;5;
56175;PMS5003;63065;51.082;17.016;2022-09-02T07:18:12;7;7;
56175;PMS5003;63065;51.082;17.016;2022-09-02T07:20:38;8;5;
56175;PMS5003;63065;51.082;17.016;2022-09-02T07:23:04;4;4;
56175;PMS5003;63065;51.082;17.016;2022-09-02T07:25:29;5;4;
56175;PMS5003;63065;51.082;17.016;2022-09-02T07:27:55;5;5;
56175;PMS5003;63065;51.082;17.016;2022-09-02T07:30:21;7;5;
56175;PMS5003;63065;51.082;17.016;2022-09-02T07:32:46;6;6;
56175;PMS5003;63065;51.082;17.016;2022-09-02T07:35:12;4;4;
56175;PMS5003;63065;51.082;17.016;2022-09-02T07:37:38;4;4;
56175;PMS5003;63065;51.082;17.016;2022-09-02T07:40:05;6;6;
56175;PMS5003;63065;51.082;17.016;2022-09-02T07:42:30;6;5;
56175;PMS5003;63065;51.082;17.016;2022-09-02T07:44:56;7;5;
56175;PMS5003;63065;51.082;17.016;2022-09-02T07:47:21;4;4;
56175;PMS5003;63065;51.082;17.016;2022-09-02T07:49:47;3;3;
56175;PMS5003;63065;51.082;17.016;2022-09-02T07:52:13;7;5;
56175;PMS5003;63065;51.082;17.016;2022-09-02T07:54:38;5;5;
56175;PMS5003;63065;51.082;17.016;2022-09-02T07:57:03;4;4;
56175;PMS5003;63065;51.082;17.016;2022-09-02T07:59:29;3;3;
56175;PMS5003;63065;51.082;17.016;2022-09-02T08:01:55;2;2;
56175;PMS5003;63065;51.082;17.016;2022-09-02T08:04:21;4;4;
56175;PMS5003;63065;51.082;17.016;2022-09-02T08:06:46;2;2;
56175;PMS5003;63065;51.082;17.016;2022-09-02T08:09:12;4;3;
56175;PMS5003;63065;51.082;17.016;2022-09-02T08:11:38;3;3;
56175;PMS5003;63065;51.082;17.016;2022-09-02T08:14:04;3;3;
56175;PMS5003;63065;51.082;17.016;2022-09-02T08:16:29;2;2;
56175;PMS5003;63065;51.082;17.016;2022-09-02T08:18:55;2;2;
56175;PMS5003;63065;51.082;17.016;2022-09-02T08:21:21;2;2;
56175;PMS5003;63065;51.082;17.016;2022-09-02T08:23:47;1;1;
56175;PMS5003;63065;51.082;17.016;2022-09-02T08:26:12;4;3;
56175;PMS5003;63065;51.082;17.016;2022-09-02T08:28:38;4;4;
56175;PMS5003;63065;51.082;17.016;2022-09-02T08:31:05;2;2;
56175;PMS5003;63065;51.082;17.016;2022-09-02T08:33:30;2;2;
56175;PMS5003;63065;51.082;17.016;2022-09-02T08:35:58;3;1;
56175;PMS5003;63065;51.082;17.016;2022-09-02T08:38:21;2;2;
56175;PMS5003;63065;51.082;17.016;2022-09-02T08:40:47;3;2;
56175;PMS5003;63065;51.082;17.016;2022-09-02T08:43:19;2;2;
56175;PMS5003;63065;51.082;17.016;2022-09-02T08:45:41;1;1;
56175;PMS5003;63065;51.082;17.016;2022-09-02T08:48:05;2;2;
56175;PMS5003;63065;51.082;17.016;2022-09-02T08:50:30;1;1;
56175;PMS5003;63065;51.082;17.016;2022-09-02T08:52:57;1;1;
56175;PMS5003;63065;51.082;17.016;2022-09-02T08:55:22;2;2;
56175;PMS5003;63065;51.082;17.016;2022-09-02T08:57:48;1;1;
56175;PMS5003;63065;51.082;17.016;2022-09-02T09:00:13;2;2;
56175;PMS5003;63065;51.082;17.016;2022-09-02T09:02:42;2;2;
56175;PMS5003;63065;51.082;17.016;2022-09-02T09:05:07;2;2;
56175;PMS5003;63065;51.082;17.016;2022-09-02T09:07:32;2;2;
56175;PMS5003;63065;51.082;17.016;2022-09-02T09:10:00;4;4;
56175;PMS5003;63065;51.082;17.016;2022-09-02T09:12:25;5;3;
56175;PMS5003;63065;51.082;17.016;2022-09-02T09:14:49;2;2;
56175;PMS5003;63065;51.082;17.016;2022-09-02T09:17:15;3;3;
56175;PMS5003;63065;51.082;17.016;2022-09-02T09:19:42;0;0;
56175;PMS5003;63065;51.082;17.016;2022-09-02T09:22:05;0;0;
56175;PMS5003;63065;51.082;17.016;2022-09-02T09:24:33;2;2;
56175;PMS5003;63065;51.082;17.016;2022-09-02T09:26:57;1;1;
56175;PMS5003;63065;51.082;17.016;2022-09-02T09:29:22;1;1;
56175;PMS5003;63065;51.082;17.016;2022-09-02T09:31:51;1;1;
56175;PMS5003;63065;51.082;17.016;2022-09-02T09:34:14;0;0;
56175;PMS5003;63065;51.082;17.016;2022-09-02T09:36:44;0;0;
56175;PMS5003;63065;51.082;17.016;2022-09-02T09:41:31;3;3;
56175;PMS5003;63065;51.082;17.016;2022-09-02T09:43:57;2;2;
56175;PMS5003;63065;51.082;17.016;2022-09-02T09:46:25;6;5;
56175;PMS5003;63065;51.082;17.016;2022-09-02T09:48:48;2;2;
56175;PMS5003;63065;51.082;17.016;2022-09-02T09:51:14;2;2;
56175;PMS5003;63065;51.082;17.016;2022-09-02T09:53:40;2;2;
56175;PMS5003;63065;51.082;17.016;2022-09-02T09:56:07;3;2;
56175;PMS5003;63065;51.082;17.016;2022-09-02T09:58:33;1;1;
56175;PMS5003;63065;51.082;17.016;2022-09-02T10:00:57;1;1;
56175;PMS5003;63065;51.082;17.016;2022-09-02T10:03:24;0;0;
56175;PMS5003;63065;51.082;17.016;2022-09-02T10:05:53;1;1;
56175;PMS5003;63065;51.082;17.016;2022-09-02T10:08:20;2;2;
56175;PMS5003;63065;51.082;17.016;2022-09-02T10:10:40;1;1;
56175;PMS5003;63065;51.082;17.016;2022-09-02T10:15:34;3;2;
56175;PMS5003;63065;51.082;17.016;2022-09-02T10:17:59;2;2;
56175;PMS5003;63065;51.082;17.016;2022-09-02T10:20:25;2;2;
56175;PMS5003;63065;51.082;17.016;2022-09-02T10:25:18;2;2;
56175;PMS5003;63065;51.082;17.016;2022-09-02T10:27:44;3;2;
56175;PMS5003;63065;51.082;17.016;2022-09-02T10:30:07;3;3;
56175;PMS5003;63065;51.082;17.016;2022-09-02T10:32:35;4;3;
56175;PMS5003;63065;51.082;17.016;2022-09-02T10:35:01;3;3;
56175;PMS5003;63065;51.082;17.016;2022-09-02T10:37:24;2;2;
56175;PMS5003;63065;51.082;17.016;2022-09-02T10:39:56;3;3;
56175;PMS5003;63065;51.082;17.016;2022-09-02T10:42:15;2;2;
56175;PMS5003;63065;51.082;17.016;2022-09-02T10:44:42;3;3;
56175;PMS5003;63065;51.082;17.016;2022-09-02T10:47:06;5;5;
56175;PMS5003;63065;51.082;17.016;2022-09-02T10:49:37;1;1;
56175;PMS5003;63065;51.082;17.016;2022-09-02T10:51:59;2;2;
56175;PMS5003;63065;51.082;17.016;2022-09-02T10:54:26;1;1;
56175;PMS5003;63065;51.082;17.016;2022-09-02T10:56:49;2;2;
56175;PMS5003;63065;51.082;17.016;2022-09-02T10:59:15;0;0;
56175;PMS5003;63065;51.082;17.016;2022-09-02T11:01:40;1;1;
56175;PMS5003;63065;51.082;17.016;2022-09-02T11:04:07;3;2;
56175;PMS5003;63065;51.082;17.016;2022-09-02T11:06:34;1;1;
56175;PMS5003;63065;51.082;17.016;2022-09-02T11:08:57;1;1;
56175;PMS5003;63065;51.082;17.016;2022-09-02T11:11:24;2;2;
56175;PMS5003;63065;51.082;17.016;2022-09-02T11:13:53;2;2;
56175;PMS5003;63065;51.082;17.016;2022-09-02T11:16:15;3;3;
56175;PMS5003;63065;51.082;17.016;2022-09-02T11:18:42;2;2;
56175;PMS5003;63065;51.082;17.016;2022-09-02T11:21:07;2;2;
56175;PMS5003;63065;51.082;17.016;2022-09-02T11:23:33;3;3;
56175;PMS5003;63065;51.082;17.016;2022-09-02T11:25:59;1;1;
56175;PMS5003;63065;51.082;17.016;2022-09-02T11:28:27;2;2;
56175;PMS5003;63065;51.082;17.016;2022-09-02T11:30:50;2;2;
56175;PMS5003;63065;51.082;17.016;2022-09-02T11:33:16;2;2;
56175;PMS5003;63065;51.082;17.016;2022-09-02T11:35:41;2;2;
56175;PMS5003;63065;51.082;17.016;2022-09-02T11:38:09;3;2;
56175;PMS5003;63065;51.082;17.016;2022-09-02T11:40:34;2;2;
56175;PMS5003;63065;51.082;17.016;2022-09-02T11:43:02;3;3;
56175;PMS5003;63065;51.082;17.016;2022-09-02T11:45:28;2;2;
56175;PMS5003;63065;51.082;17.016;2022-09-02T11:47:53;2;2;
56175;PMS5003;63065;51.082;17.016;2022-09-02T11:50:19;3;3;
56175;PMS5003;63065;51.082;17.016;2022-09-02T11:52:44;2;2;
56175;PMS5003;63065;51.082;17.016;2022-09-02T11:55:07;2;2;
56175;PMS5003;63065;51.082;17.016;2022-09-02T11:57:32;3;2;
56175;PMS5003;63065;51.082;17.016;2022-09-02T12:00:04;1;1;
56175;PMS5003;63065;51.082;17.016;2022-09-02T12:04:49;2;2;
56175;PMS5003;63065;51.082;17.016;2022-09-02T12:09:42;2;2;
56175;PMS5003;63065;51.082;17.016;2022-09-02T12:12:07;9;8;
56175;PMS5003;63065;51.082;17.016;2022-09-02T12:16:58;10;9;
56175;PMS5003;63065;51.082;17.016;2022-09-02T12:19:26;2;2;
56175;PMS5003;63065;51.082;17.016;2022-09-02T12:24:19;3;3;
56175;PMS5003;63065;51.082;17.016;2022-09-02T12:29:10;2;2;
56175;PMS5003;63065;51.082;17.016;2022-09-02T12:31:37;2;2;
56175;PMS5003;63065;51.082;17.016;2022-09-02T12:33:58;3;3;
56175;PMS5003;63065;51.082;17.016;2022-09-02T12:38:50;3;3;
56175;PMS5003;63065;51.082;17.016;2022-09-02T12:41:20;4;3;
56175;PMS5003;63065;51.082;17.016;2022-09-02T12:43:45;4;3;
56175;PMS5003;63065;51.082;17.016;2022-09-02T12:46:11;3;3;
56175;PMS5003;63065;51.082;17.016;2022-09-02T12:48:35;2;2;
56175;PMS5003;63065;51.082;17.016;2022-09-02T12:50:59;4;3;
56175;PMS5003;63065;51.082;17.016;2022-09-02T12:53:28;3;3;
56175;PMS5003;63065;51.082;17.016;2022-09-02T12:55:52;2;2;
56175;PMS5003;63065;51.082;17.016;2022-09-02T12:58:19;1;1;
56175;PMS5003;63065;51.082;17.016;2022-09-02T13:00:49;2;2;
56175;PMS5003;63065;51.082;17.016;2022-09-02T13:03:12;2;2;
56175;PMS5003;63065;51.082;17.016;2022-09-02T13:05:36;3;3;
56175;PMS5003;63065;51.082;17.016;2022-09-02T13:08:09;2;2;
56175;PMS5003;63065;51.082;17.016;2022-09-02T13:10:26;3;2;
56175;PMS5003;63065;51.082;17.016;2022-09-02T13:12:55;2;2;
56175;PMS5003;63065;51.082;17.016;2022-09-02T13:15:21;5;3;
56175;PMS5003;63065;51.082;17.016;2022-09-02T13:17:44;3;3;
56175;PMS5003;63065;51.082;17.016;2022-09-02T13:22:38;4;4;
56175;PMS5003;63065;51.082;17.016;2022-09-02T13:27:31;4;4;
56175;PMS5003;63065;51.082;17.016;2022-09-02T13:32:20;3;3;
56175;PMS5003;63065;51.082;17.016;2022-09-02T13:34:42;4;4;
56175;PMS5003;63065;51.082;17.016;2022-09-02T13:39:33;4;4;
56175;PMS5003;63065;51.082;17.016;2022-09-02T13:41:59;4;4;
56175;PMS5003;63065;51.082;17.016;2022-09-02T13:44:25;2;2;
56175;PMS5003;63065;51.082;17.016;2022-09-02T13:46:52;7;5;
56175;PMS5003;63065;51.082;17.016;2022-09-02T13:49:17;5;4;
56175;PMS5003;63065;51.082;17.016;2022-09-02T13:51:42;3;3;
56175;PMS5003;63065;51.082;17.016;2022-09-02T13:54:08;6;4;
56175;PMS5003;63065;51.082;17.016;2022-09-02T13:56:34;5;5;
56175;PMS5003;63065;51.082;17.016;2022-09-02T13:58:59;4;4;
56175;PMS5003;63065;51.082;17.016;2022-09-02T14:01:26;7;7;
56175;PMS5003;63065;51.082;17.016;2022-09-02T14:03:52;4;4;
56175;PMS5003;63065;51.082;17.016;2022-09-02T14:06:18;4;4;
56175;PMS5003;63065;51.082;17.016;2022-09-02T14:08:42;8;6;
56175;PMS5003;63065;51.082;17.016;2022-09-02T14:11:08;3;3;
56175;PMS5003;63065;51.082;17.016;2022-09-02T14:13:34;4;4;
56175;PMS5003;63065;51.082;17.016;2022-09-02T14:18:25;4;4;
56175;PMS5003;63065;51.082;17.016;2022-09-02T14:20:53;3;3;
56175;PMS5003;63065;51.082;17.016;2022-09-02T14:23:17;4;4;
56175;PMS5003;63065;51.082;17.016;2022-09-02T14:25:47;4;4;
56175;PMS5003;63065;51.082;17.016;2022-09-02T14:28:09;3;3;
56175;PMS5003;63065;51.082;17.016;2022-09-02T14:30:35;4;4;
56175;PMS5003;63065;51.082;17.016;2022-09-02T14:35:26;5;5;
56175;PMS5003;63065;51.082;17.016;2022-09-02T14:37:52;5;5;
56175;PMS5003;63065;51.082;17.016;2022-09-02T14:40:17;2;2;
56175;PMS5003;63065;51.082;17.016;2022-09-02T14:42:44;2;2;
56175;PMS5003;63065;51.082;17.016;2022-09-02T14:45:09;2;2;
56175;PMS5003;63065;51.082;17.016;2022-09-02T14:47:35;3;3;
56175;PMS5003;63065;51.082;17.016;2022-09-02T14:50:00;2;2;
56175;PMS5003;63065;51.082;17.016;2022-09-02T14:52:27;4;4;
56175;PMS5003;63065;51.082;17.016;2022-09-02T14:54:53;4;3;
56175;PMS5003;63065;51.082;17.016;2022-09-02T14:57:19;3;3;
56175;PMS5003;63065;51.082;17.016;2022-09-02T14:59:43;4;3;
56175;PMS5003;63065;51.082;17.016;2022-09-02T15:04:35;4;4;
56175;PMS5003;63065;51.082;17.016;2022-09-02T15:07:01;3;3;
56175;PMS5003;63065;51.082;17.016;2022-09-02T15:09:26;3;3;
56175;PMS5003;63065;51.082;17.016;2022-09-02T15:11:52;4;3;
56175;PMS5003;63065;51.082;17.016;2022-09-02T15:14:18;5;5;
56175;PMS5003;63065;51.082;17.016;2022-09-02T15:16:44;5;4;
56175;PMS5003;63065;51.082;17.016;2022-09-02T15:19:09;4;4;
56175;PMS5003;63065;51.082;17.016;2022-09-02T15:21:35;6;6;
56175;PMS5003;63065;51.082;17.016;2022-09-02T15:24:01;6;5;
56175;PMS5003;63065;51.082;17.016;2022-09-02T15:26:27;4;4;
56175;PMS5003;63065;51.082;17.016;2022-09-02T15:28:53;4;4;
56175;PMS5003;63065;51.082;17.016;2022-09-02T15:31:18;4;4;
56175;PMS5003;63065;51.082;17.016;2022-09-02T15:33:47;4;4;
56175;PMS5003;63065;51.082;17.016;2022-09-02T15:36:11;3;3;
56175;PMS5003;63065;51.082;17.016;2022-09-02T15:38:36;4;3;
56175;PMS5003;63065;51.082;17.016;2022-09-02T15:43:27;5;4;
56175;PMS5003;63065;51.082;17.016;2022-09-02T15:45:53;4;4;
56175;PMS5003;63065;51.082;17.016;2022-09-02T15:48:18;4;4;
56175;PMS5003;63065;51.082;17.016;2022-09-02T15:50:44;4;4;
56175;PMS5003;63065;51.082;17.016;2022-09-02T15:53:10;3;3;
56175;PMS5003;63065;51.082;17.016;2022-09-02T15:55:36;4;4;
56175;PMS5003;63065;51.082;17.016;2022-09-02T15:58:02;6;6;
56175;PMS5003;63065;51.082;17.016;2022-09-02T16:00:27;3;3;
56175;PMS5003;63065;51.082;17.016;2022-09-02T16:02:54;4;4;
56175;PMS5003;63065;51.082;17.016;2022-09-02T16:05:19;4;4;
56175;PMS5003;63065;51.082;17.016;2022-09-02T16:07:44;3;3;
56175;PMS5003;63065;51.082;17.016;2022-09-02T16:10:10;5;5;
56175;PMS5003;63065;51.082;17.016;2022-09-02T16:12:36;3;2;
56175;PMS5003;63065;51.082;17.016;2022-09-02T16:15:02;4;4;
56175;PMS5003;63065;51.082;17.016;2022-09-02T16:17:28;5;5;
56175;PMS5003;63065;51.082;17.016;2022-09-02T16:19:54;6;5;
56175;PMS5003;63065;51.082;17.016;2022-09-02T16:22:19;3;3;
56175;PMS5003;63065;51.082;17.016;2022-09-02T16:24:45;3;3;
56175;PMS5003;63065;51.082;17.016;2022-09-02T16:27:11;6;6;
56175;PMS5003;63065;51.082;17.016;2022-09-02T16:29:37;5;4;
56175;PMS5003;63065;51.082;17.016;2022-09-02T16:32:02;3;3;
56175;PMS5003;63065;51.082;17.016;2022-09-02T16:34:28;5;5;
56175;PMS5003;63065;51.082;17.016;2022-09-02T16:36:54;5;5;
56175;PMS5003;63065;51.082;17.016;2022-09-02T16:39:19;4;4;
56175;PMS5003;63065;51.082;17.016;2022-09-02T16:41:46;6;6;
56175;PMS5003;63065;51.082;17.016;2022-09-02T16:44:12;3;2;
56175;PMS5003;63065;51.082;17.016;2022-09-02T16:46:37;3;3;
56175;PMS5003;63065;51.082;17.016;2022-09-02T16:49:02;3;3;
56175;PMS5003;63065;51.082;17.016;2022-09-02T16:51:28;5;3;
56175;PMS5003;63065;51.082;17.016;2022-09-02T16:53:55;5;5;
56175;PMS5003;63065;51.082;17.016;2022-09-02T16:56:20;3;3;
56175;PMS5003;63065;51.082;17.016;2022-09-02T16:58:45;4;4;